Skip Navigation Links Skip Navigation Links

Current Weather

Essex County, Caldwell, N.J.

For information only: do not use for flight planning or navigation.
Latest weather
Observation time Thursday, November 14, 2019 7:53 PM EST
Local time Thursday, November 14, 2019 8:11 PM EST
Flight conditions Visual Meteorological Conditions
Winds
Wind speed calm
Visibility 10 mi.
Sky condition
Ceiling unlimited
Cloud layer few clouds 11,000 ft.
Temperature 38°F
Dewpoint 25°F
Altimeter 30.30 in.Hg
Derived measurements
Relative humidity 59%
Wind chill 38°F
Density altitude -1609 ft.
Sea-level pressure 30.32 in.Hg
Remarks
Automated weather observing station with precipitation discriminator.
METAR KCDW 150053Z 00000KT 10SM FEW110 03/M04 A3030 RMK AO2 SLP268 T00331039

Settings

Location code

InnerDrive.Weather 4.0.6770.0 Release CLR 4.0.30319.42000
Copyright ©2018 Inner Drive Technology. All rights reserved. Portions Copyright ©1986-2018 David Braverman.

Find weather

Site navigation


Skip Navigation Links

Place info

Page info

PayPal - The safer, easier way to pay online!

Return home.

Copyright ©2019 Inner Drive Technology. Purveyors of fine, hand-crafted computer software. Page printed 2019-11-15T01:11:42 UTC.